createdAt,value
2023-03-06T00:00:58.621Z,1.49
2023-03-06T00:03:28.973Z,1.46
2023-03-06T00:05:59.391Z,1.45
2023-03-06T00:08:30.213Z,1.44
2023-03-06T00:10:59.991Z,1.41
2023-03-06T00:13:31.286Z,1.40
2023-03-06T00:16:01.565Z,1.40
2023-03-06T00:18:30.634Z,1.39
2023-03-06T00:21:00.517Z,1.37
2023-03-06T00:23:30.265Z,1.36
2023-03-06T00:25:59.674Z,1.37
2023-03-06T00:28:32.560Z,1.36
2023-03-06T00:31:02.821Z,1.34
2023-03-06T00:33:32.728Z,1.33
2023-03-06T00:36:06.707Z,1.33
2023-03-06T00:38:37.871Z,1.31
2023-03-06T00:41:11.539Z,1.28
2023-03-06T00:43:41.236Z,1.24
2023-03-06T00:46:10.620Z,1.20
2023-03-06T00:48:42.221Z,1.16
2023-03-06T00:51:14.028Z,1.13
2023-03-06T00:53:44.082Z,1.09
2023-03-06T00:56:14.352Z,1.05
2023-03-06T00:58:45.583Z,1.01
2023-03-06T01:01:16.528Z,0.99
2023-03-06T01:03:46.089Z,0.98
2023-03-06T01:06:17.474Z,0.94
2023-03-06T01:08:47.887Z,0.89
2023-03-06T01:11:17.287Z,0.84
2023-03-06T01:13:46.864Z,0.80
2023-03-06T01:16:19.597Z,0.78
2023-03-06T01:18:51.615Z,0.76
2023-03-06T01:21:22.349Z,0.74
2023-03-06T01:23:52.147Z,0.71
2023-03-06T01:26:22.070Z,0.69
2023-03-06T01:28:52.216Z,0.65
2023-03-06T01:31:23.094Z,0.63
2023-03-06T01:33:53.341Z,0.60
2023-03-06T01:36:23.101Z,0.57
2023-03-06T01:38:53.184Z,0.55
2023-03-06T01:41:22.804Z,0.52
2023-03-06T01:43:54.808Z,0.49
2023-03-06T01:46:34.304Z,0.48
2023-03-06T01:49:06.392Z,0.46
2023-03-06T01:51:54.054Z,0.43
2023-03-06T01:54:47.301Z,0.39
2023-03-06T01:57:22.978Z,0.33
2023-03-06T02:00:01.623Z,0.28
2023-03-06T02:02:31.744Z,0.28
2023-03-06T02:05:04.950Z,0.29
2023-03-06T02:07:37.415Z,0.33
2023-03-06T02:10:11.350Z,0.42
2023-03-06T02:12:44.836Z,0.51
2023-03-06T02:15:18.600Z,0.58
2023-03-06T02:17:52.316Z,0.61
2023-03-06T02:20:47.027Z,0.62
2023-03-06T02:23:26.285Z,0.63
2023-03-06T02:25:58.144Z,0.61
2023-03-06T02:28:28.288Z,0.61
2023-03-06T02:30:58.731Z,0.61
2023-03-06T02:33:31.262Z,0.61
2023-03-06T02:36:05.280Z,0.63
2023-03-06T02:38:42.319Z,0.65
2023-03-06T02:41:13.672Z,0.66
2023-03-06T02:43:47.421Z,0.69
2023-03-06T02:46:17.435Z,0.69
2023-03-06T02:48:46.991Z,0.69
2023-03-06T02:51:16.842Z,0.70
2023-03-06T02:53:48.705Z,0.70
2023-03-06T02:56:19.713Z,0.72
2023-03-06T02:58:50.478Z,0.72
2023-03-06T03:01:20.582Z,0.71
2023-03-06T03:03:50.901Z,0.73
2023-03-06T03:06:21.712Z,0.74
2023-03-06T03:08:51.577Z,0.75
2023-03-06T03:11:22.997Z,0.78
2023-03-06T03:13:53.959Z,0.79
2023-03-06T03:16:27.052Z,0.79
2023-03-06T03:18:59.102Z,0.78
2023-03-06T03:21:29.513Z,0.79
2023-03-06T03:23:59.402Z,0.82
2023-03-06T03:26:31.496Z,0.81
2023-03-06T03:29:09.357Z,0.76
2023-03-06T03:31:41.228Z,0.71
2023-03-06T03:34:11.886Z,0.68
2023-03-06T03:36:45.056Z,0.66
2023-03-06T03:39:16.441Z,0.61
2023-03-06T03:41:47.006Z,0.56
2023-03-06T03:44:17.551Z,0.53
2023-03-06T03:46:48.237Z,0.48
2023-03-06T03:49:22.704Z,0.46
2023-03-06T03:51:54.000Z,0.44
2023-03-06T03:54:24.797Z,0.44
2023-03-06T03:56:56.244Z,0.45
2023-03-06T03:59:30.453Z,0.45
2023-03-06T04:02:09.202Z,0.45
2023-03-06T04:04:44.145Z,0.43
2023-03-06T04:07:13.341Z,0.42
2023-03-06T04:09:43.346Z,0.42
2023-03-06T04:12:12.841Z,0.43
2023-03-06T04:14:43.160Z,0.43
2023-03-06T04:17:12.354Z,0.43
2023-03-06T04:19:44.606Z,0.43
2023-03-06T04:22:14.685Z,0.44
2023-03-06T04:24:45.517Z,0.45
2023-03-06T04:27:15.306Z,0.44
2023-03-06T04:29:45.412Z,0.43
2023-03-06T04:32:15.830Z,0.42
2023-03-06T04:34:45.439Z,0.41
2023-03-06T04:37:21.415Z,0.42
2023-03-06T04:39:52.836Z,0.42
2023-03-06T04:42:22.958Z,0.43
2023-03-06T04:44:52.485Z,0.43
2023-03-06T04:47:22.390Z,0.42
2023-03-06T04:49:51.604Z,0.41
2023-03-06T04:52:21.314Z,0.38
2023-03-06T04:54:51.468Z,0.38
2023-03-06T04:57:21.128Z,0.37
2023-03-06T04:59:51.148Z,0.36
2023-03-06T05:02:22.012Z,0.33
2023-03-06T05:04:50.881Z,0.32
2023-03-06T05:07:19.942Z,0.33
2023-03-06T05:09:48.954Z,0.34
2023-03-06T05:12:18.812Z,0.36
2023-03-06T05:14:48.778Z,0.38
2023-03-06T05:17:17.868Z,0.42
2023-03-06T05:19:47.904Z,0.46
2023-03-06T05:22:16.890Z,0.50
2023-03-06T05:24:46.487Z,0.54
2023-03-06T05:27:16.934Z,0.57
2023-03-06T05:29:47.371Z,0.60
2023-03-06T05:32:17.310Z,0.60
2023-03-06T05:34:46.169Z,0.63
2023-03-06T05:37:16.177Z,0.67
2023-03-06T05:39:45.366Z,0.72
2023-03-06T05:42:14.256Z,0.79
2023-03-06T05:44:43.453Z,0.87
2023-03-06T05:47:13.258Z,0.95
2023-03-06T05:49:42.557Z,1.03
2023-03-06T05:52:13.430Z,1.08
2023-03-06T05:54:42.393Z,1.15
2023-03-06T05:57:11.921Z,1.24
2023-03-06T05:59:40.988Z,1.40
2023-03-06T06:02:10.233Z,1.55
2023-03-06T06:04:39.172Z,1.72
2023-03-06T06:07:08.678Z,1.89
2023-03-06T06:09:38.494Z,2.07
2023-03-06T06:12:08.320Z,2.24
2023-03-06T06:14:38.224Z,2.40
2023-03-06T06:17:07.946Z,2.48
2023-03-06T06:19:37.537Z,2.56
2023-03-06T06:22:06.527Z,2.62
2023-03-06T06:24:35.425Z,2.64
2023-03-06T06:27:05.530Z,2.66
2023-03-06T06:29:34.832Z,2.70
2023-03-06T06:32:03.575Z,2.73
2023-03-06T06:34:32.929Z,2.76
2023-03-06T06:37:02.230Z,2.80
2023-03-06T06:39:31.323Z,2.84
2023-03-06T06:42:25.915Z,3.03
2023-03-06T06:44:50.247Z,3.33
2023-03-06T06:47:22.909Z,3.60
2023-03-06T06:49:55.322Z,3.69
2023-03-06T06:52:25.149Z,4.05
2023-03-06T06:54:54.450Z,4.46
2023-03-06T06:57:23.451Z,4.76
2023-03-06T06:59:54.160Z,4.81
2023-03-06T07:02:23.696Z,4.98
2023-03-06T07:05:03.724Z,4.98
2023-03-06T07:07:37.683Z,4.66
2023-03-06T07:10:13.192Z,4.46
2023-03-06T07:12:42.197Z,4.33
2023-03-06T07:15:15.688Z,4.24
2023-03-06T07:17:45.286Z,4.38
2023-03-06T07:20:14.807Z,4.78
2023-03-06T07:22:50.875Z,4.89
2023-03-06T07:25:21.627Z,5.01
2023-03-06T07:27:54.708Z,5.07
2023-03-06T07:30:24.793Z,5.11
2023-03-06T07:32:58.502Z,4.90
2023-03-06T07:35:27.499Z,4.60
2023-03-06T07:37:56.908Z,4.34
2023-03-06T07:40:26.697Z,4.03
2023-03-06T07:43:09.131Z,3.78
2023-03-06T07:45:47.175Z,3.67
2023-03-06T07:48:16.027Z,3.61
2023-03-06T07:50:45.519Z,3.84
2023-03-06T07:53:14.105Z,4.27
2023-03-06T07:55:43.316Z,4.88
2023-03-06T07:58:12.823Z,5.60
2023-03-06T08:00:42.026Z,6.46
2023-03-06T08:03:13.149Z,7.16
2023-03-06T08:05:42.571Z,7.60
2023-03-06T08:08:12.689Z,7.85
2023-03-06T08:10:41.755Z,8.04
2023-03-06T08:13:10.454Z,8.26
2023-03-06T08:15:39.349Z,8.61
2023-03-06T08:18:08.432Z,8.25
2023-03-06T08:20:37.944Z,7.96
2023-03-06T08:23:06.931Z,8.27
2023-03-06T08:25:36.230Z,8.65
2023-03-06T08:28:06.492Z,9.48
2023-03-06T08:30:35.861Z,10.24
2023-03-06T08:33:04.647Z,10.41
2023-03-06T08:35:33.346Z,10.38
2023-03-06T08:38:03.134Z,10.44
2023-03-06T08:40:32.226Z,10.07
2023-03-06T08:43:01.226Z,9.86
2023-03-06T08:45:30.281Z,10.21
2023-03-06T08:47:59.115Z,10.54
2023-03-06T08:50:28.210Z,10.62
2023-03-06T08:52:57.183Z,10.20
2023-03-06T08:55:26.078Z,9.94
2023-03-06T08:57:55.303Z,9.76
2023-03-06T09:00:25.001Z,9.59
2023-03-06T09:02:53.876Z,8.79
2023-03-06T09:05:23.282Z,9.16
2023-03-06T09:07:52.137Z,10.08
2023-03-06T09:10:23.982Z,10.52
2023-03-06T09:12:55.049Z,11.14
2023-03-06T09:15:25.089Z,12.12
2023-03-06T09:17:54.728Z,12.89
2023-03-06T09:20:23.750Z,12.92
2023-03-06T09:22:52.577Z,12.15
2023-03-06T09:25:23.598Z,11.85
2023-03-06T09:28:08.636Z,11.81
2023-03-06T09:30:41.146Z,11.45
2023-03-06T09:33:09.964Z,10.62
2023-03-06T09:35:48.372Z,10.18
2023-03-06T09:38:18.699Z,9.52
2023-03-06T09:41:03.258Z,9.02
2023-03-06T09:43:36.754Z,9.03
2023-03-06T09:46:28.954Z,8.76
2023-03-06T09:49:29.419Z,8.71
2023-03-06T09:52:36.523Z,8.47
2023-03-06T09:55:05.796Z,8.11
2023-03-06T09:57:52.923Z,7.96
2023-03-06T10:00:47.615Z,7.98
2023-03-06T10:03:30.099Z,7.89
2023-03-06T10:06:20.935Z,7.61
2023-03-06T10:08:56.366Z,7.62
2023-03-06T10:11:57.518Z,7.71
2023-03-06T10:14:46.625Z,7.39
2023-03-06T10:17:20.988Z,7.39
2023-03-06T10:19:50.310Z,7.86
2023-03-06T10:22:33.367Z,8.13
2023-03-06T10:25:14.171Z,8.28
2023-03-06T10:27:47.769Z,9.41
2023-03-06T10:30:34.476Z,10.40
2023-03-06T10:33:16.098Z,10.90
2023-03-06T10:35:50.133Z,11.12
2023-03-06T10:38:38.041Z,11.17
2023-03-06T10:41:17.269Z,11.00
2023-03-06T10:44:09.657Z,10.68
2023-03-06T10:46:51.734Z,10.14
2023-03-06T10:49:31.030Z,9.97
2023-03-06T10:52:01.586Z,9.81
2023-03-06T10:54:36.726Z,9.81
2023-03-06T10:57:27.209Z,9.65
2023-03-06T11:00:07.656Z,10.30
2023-03-06T11:02:41.343Z,11.27
2023-03-06T11:05:20.395Z,12.44
2023-03-06T11:08:01.405Z,13.65
2023-03-06T11:10:32.123Z,14.75
2023-03-06T11:13:20.779Z,15.15
2023-03-06T11:16:06.287Z,15.31
2023-03-06T11:18:41.488Z,13.87
2023-03-06T11:21:32.129Z,12.64
2023-03-06T11:24:18.898Z,11.57
2023-03-06T11:27:00.158Z,12.26
2023-03-06T11:29:46.269Z,13.37
2023-03-06T11:32:14.855Z,13.37
2023-03-06T11:35:11.893Z,13.30
2023-03-06T11:38:00.060Z,13.33
2023-03-06T11:40:46.548Z,11.50
2023-03-06T11:43:30.275Z,10.03
2023-03-06T11:46:18.050Z,9.79
2023-03-06T11:48:53.864Z,9.09
2023-03-06T11:51:27.152Z,9.05
2023-03-06T11:53:58.811Z,9.23
2023-03-06T11:56:42.066Z,9.39
2023-03-06T11:59:19.939Z,9.51
2023-03-06T12:02:11.492Z,9.27
2023-03-06T12:04:49.363Z,9.09
2023-03-06T12:07:27.369Z,9.04
2023-03-06T12:10:14.703Z,8.81
2023-03-06T12:13:12.561Z,8.96
2023-03-06T12:15:57.247Z,9.05
2023-03-06T12:18:35.941Z,8.85
2023-03-06T12:21:19.589Z,8.98
2023-03-06T12:24:17.341Z,8.90
2023-03-06T12:26:51.662Z,8.80
2023-03-06T12:29:58.341Z,8.76
2023-03-06T12:32:39.506Z,8.64
2023-03-06T12:35:46.413Z,8.55
2023-03-06T12:38:34.531Z,8.74
2023-03-06T12:41:19.094Z,9.46
2023-03-06T12:44:09.588Z,10.00
2023-03-06T12:46:54.663Z,10.10
2023-03-06T12:49:32.903Z,10.04
2023-03-06T12:52:05.137Z,10.11
2023-03-06T12:54:40.067Z,10.05
2023-03-06T12:57:10.410Z,10.16
2023-03-06T12:59:50.351Z,10.74
2023-03-06T13:02:35.639Z,11.27
2023-03-06T13:05:22.741Z,11.83
2023-03-06T13:08:20.305Z,12.15
2023-03-06T13:11:14.491Z,11.83
2023-03-06T13:13:46.182Z,10.88
2023-03-06T13:16:34.886Z,11.39
2023-03-06T13:19:26.129Z,11.94
2023-03-06T13:21:54.799Z,12.55
2023-03-06T13:24:27.330Z,13.27
2023-03-06T13:27:08.216Z,14.22
2023-03-06T13:29:37.547Z,14.74
2023-03-06T13:32:16.704Z,15.13
2023-03-06T13:34:48.780Z,14.88
2023-03-06T13:37:17.936Z,14.43
2023-03-06T13:39:55.641Z,14.55
2023-03-06T13:42:32.114Z,14.75
2023-03-06T13:45:26.099Z,15.39
2023-03-06T13:48:24.479Z,15.73
2023-03-06T13:50:49.845Z,15.76
2023-03-06T13:53:36.988Z,16.21
2023-03-06T13:56:12.324Z,15.91
2023-03-06T13:58:53.127Z,15.78
2023-03-06T14:01:36.956Z,15.51
2023-03-06T14:04:14.740Z,15.24
2023-03-06T14:06:53.025Z,14.92
2023-03-06T14:09:32.989Z,15.76
2023-03-06T14:12:08.146Z,14.08
2023-03-06T14:14:44.082Z,14.54
2023-03-06T14:17:23.938Z,13.82
2023-03-06T14:19:53.539Z,14.94
2023-03-06T14:22:25.196Z,15.34
2023-03-06T14:25:03.192Z,15.60
2023-03-06T14:27:52.022Z,15.23
2023-03-06T14:30:25.390Z,15.05
2023-03-06T14:32:55.687Z,14.24
2023-03-06T14:35:34.838Z,14.18
2023-03-06T14:38:06.758Z,13.78
2023-03-06T14:40:41.292Z,13.28
2023-03-06T14:43:24.130Z,13.09
2023-03-06T14:46:01.302Z,12.97
2023-03-06T14:48:44.725Z,12.34
2023-03-06T14:51:21.308Z,12.04
2023-03-06T14:53:52.239Z,11.90
2023-03-06T14:56:26.489Z,12.08
2023-03-06T14:59:06.517Z,11.79
2023-03-06T15:01:41.241Z,12.14
2023-03-06T15:04:29.299Z,12.42
2023-03-06T15:06:59.430Z,12.37
2023-03-06T15:09:33.463Z,12.25
2023-03-06T15:12:30.045Z,12.25
2023-03-06T15:15:10.712Z,12.05
2023-03-06T15:17:42.674Z,12.32
2023-03-06T15:20:36.129Z,12.53
2023-03-06T15:23:16.389Z,12.48
2023-03-06T15:25:55.934Z,12.23
2023-03-06T15:28:38.968Z,11.79
2023-03-06T15:31:22.029Z,11.31
2023-03-06T15:34:25.579Z,11.06
2023-03-06T15:36:56.757Z,10.83
2023-03-06T15:39:37.321Z,10.68
2023-03-06T15:42:15.620Z,10.43
2023-03-06T15:44:49.505Z,10.16
2023-03-06T15:47:18.592Z,9.86
2023-03-06T15:49:52.205Z,9.45
2023-03-06T15:52:22.292Z,8.96
2023-03-06T15:54:51.111Z,8.52
2023-03-06T15:57:24.514Z,8.02
2023-03-06T15:59:54.660Z,7.67
2023-03-06T16:02:24.859Z,7.33
2023-03-06T16:04:53.901Z,7.00
2023-03-06T16:07:22.534Z,6.69
2023-03-06T16:09:51.823Z,6.42
2023-03-06T16:12:22.468Z,6.19
2023-03-06T16:14:50.964Z,5.88
2023-03-06T16:17:19.627Z,5.56
2023-03-06T16:19:48.276Z,5.30
2023-03-06T16:22:17.091Z,5.07
2023-03-06T16:24:47.113Z,4.85
2023-03-06T16:27:23.574Z,4.65
2023-03-06T16:29:53.494Z,4.42
2023-03-06T16:32:28.355Z,4.20
2023-03-06T16:34:57.524Z,3.99
2023-03-06T16:37:26.208Z,3.80
2023-03-06T16:39:54.888Z,3.65
2023-03-06T16:42:23.777Z,3.52
2023-03-06T16:44:53.586Z,3.43
2023-03-06T16:47:22.994Z,3.31
2023-03-06T16:49:56.212Z,3.18
2023-03-06T16:52:24.867Z,3.06
2023-03-06T16:54:54.475Z,2.93
2023-03-06T16:57:23.060Z,2.82
2023-03-06T16:59:51.844Z,2.73
2023-03-06T17:02:20.563Z,2.66
2023-03-06T17:04:49.444Z,2.59
2023-03-06T17:07:18.108Z,2.50
2023-03-06T17:09:46.892Z,2.42
2023-03-06T17:12:15.579Z,2.33
2023-03-06T17:14:44.174Z,2.26
2023-03-06T17:17:12.815Z,2.20
2023-03-06T17:19:41.636Z,2.17
2023-03-06T17:22:10.241Z,2.14
2023-03-06T17:24:40.749Z,2.11
2023-03-06T17:27:09.846Z,2.08
2023-03-06T17:29:38.733Z,2.02
2023-03-06T17:32:07.757Z,2.01
2023-03-06T17:34:36.426Z,2.00
2023-03-06T17:37:05.654Z,2.01
2023-03-06T17:39:36.987Z,2.01
2023-03-06T17:42:06.846Z,1.99
2023-03-06T17:44:36.175Z,1.94
2023-03-06T17:47:05.473Z,1.88
2023-03-06T17:49:34.174Z,1.82
2023-03-06T17:52:05.332Z,1.76
2023-03-06T17:54:34.703Z,1.71
2023-03-06T17:57:05.548Z,1.68
2023-03-06T17:59:34.780Z,1.66
2023-03-06T18:02:03.788Z,1.62
2023-03-06T18:04:32.659Z,1.57
2023-03-06T18:07:01.507Z,1.53
2023-03-06T18:09:30.276Z,1.49
2023-03-06T18:11:59.802Z,1.45
2023-03-06T18:14:28.482Z,1.39
2023-03-06T18:16:57.479Z,1.34
2023-03-06T18:19:26.060Z,1.26
2023-03-06T18:21:54.953Z,1.21
2023-03-06T18:24:23.842Z,1.19
2023-03-06T18:26:52.735Z,1.17
2023-03-06T18:29:21.319Z,1.15
2023-03-06T18:31:50.759Z,1.16
2023-03-06T18:34:19.300Z,1.16
2023-03-06T18:36:48.604Z,1.16
2023-03-06T18:39:17.492Z,1.13
2023-03-06T18:41:45.973Z,1.09
2023-03-06T18:44:16.573Z,1.05
2023-03-06T18:46:45.520Z,1.01
2023-03-06T18:49:15.511Z,0.98
2023-03-06T18:51:44.004Z,0.96
2023-03-06T18:54:14.011Z,0.95
2023-03-06T18:56:44.460Z,0.94
2023-03-06T18:59:18.526Z,0.94
2023-03-06T19:01:49.587Z,0.93
2023-03-06T19:04:18.217Z,0.92
2023-03-06T19:06:46.863Z,1.12
2023-03-06T19:09:15.549Z,1.09
2023-03-06T19:11:47.103Z,1.07
2023-03-06T19:14:16.619Z,1.02
2023-03-06T19:16:45.217Z,0.98
2023-03-06T19:19:13.877Z,1.30
2023-03-06T19:21:42.560Z,1.28
2023-03-06T19:24:14.530Z,1.30
2023-03-06T19:26:43.525Z,1.32
2023-03-06T19:29:12.102Z,1.35
2023-03-06T19:31:41.670Z,1.36
2023-03-06T19:34:10.806Z,1.34
2023-03-06T19:36:41.045Z,1.35
2023-03-06T19:39:11.145Z,1.37
2023-03-06T19:41:39.620Z,1.35
2023-03-06T19:44:08.207Z,1.28
2023-03-06T19:46:37.006Z,1.19
2023-03-06T19:49:12.032Z,1.10
2023-03-06T19:51:40.511Z,1.00
2023-03-06T19:54:14.420Z,0.91
2023-03-06T19:56:43.017Z,0.84
2023-03-06T19:59:11.694Z,0.76
2023-03-06T20:01:40.874Z,0.69
2023-03-06T20:04:09.631Z,0.64
2023-03-06T20:06:39.288Z,0.60
2023-03-06T20:09:09.401Z,0.58
2023-03-06T20:11:38.930Z,0.59
2023-03-06T20:14:09.260Z,0.64
2023-03-06T20:16:38.428Z,0.71
2023-03-06T20:19:08.960Z,0.80
2023-03-06T20:21:38.760Z,0.91
2023-03-06T20:24:09.019Z,1.00
2023-03-06T20:26:38.790Z,1.10
2023-03-06T20:29:07.632Z,1.20
2023-03-06T20:31:36.985Z,1.30
2023-03-06T20:34:05.764Z,1.39
2023-03-06T20:36:39.519Z,1.46
2023-03-06T20:39:12.166Z,1.52
2023-03-06T20:41:41.347Z,1.56
2023-03-06T20:44:14.119Z,1.58
2023-03-06T20:46:43.061Z,1.60
2023-03-06T20:49:13.279Z,1.65
2023-03-06T20:51:42.659Z,1.70
2023-03-06T20:54:13.806Z,1.75
2023-03-06T20:56:46.280Z,1.82
2023-03-06T20:59:15.976Z,1.88
2023-03-06T21:01:46.399Z,1.92
2023-03-06T21:04:16.126Z,1.96
2023-03-06T21:06:47.134Z,1.99
2023-03-06T21:09:17.645Z,2.02
2023-03-06T21:11:46.378Z,2.03
2023-03-06T21:14:15.932Z,2.04
2023-03-06T21:16:45.474Z,2.04
2023-03-06T21:19:14.472Z,2.05
2023-03-06T21:21:43.257Z,2.05
2023-03-06T21:24:12.263Z,2.03
2023-03-06T21:26:41.046Z,2.02
2023-03-06T21:29:10.237Z,1.99
2023-03-06T21:31:39.310Z,1.98
2023-03-06T21:34:08.528Z,1.97
2023-03-06T21:36:37.423Z,1.96
2023-03-06T21:39:06.574Z,1.94
2023-03-06T21:41:35.319Z,1.93
2023-03-06T21:44:06.293Z,1.93
2023-03-06T21:46:36.225Z,1.93
2023-03-06T21:49:05.984Z,1.91
2023-03-06T21:51:35.998Z,1.90
2023-03-06T21:54:06.829Z,1.88
2023-03-06T21:56:36.036Z,1.89
2023-03-06T21:59:04.714Z,1.90
2023-03-06T22:01:33.494Z,1.92
2023-03-06T22:04:02.581Z,1.96
2023-03-06T22:06:32.443Z,2.00
2023-03-06T22:09:02.026Z,2.03
2023-03-06T22:11:31.815Z,2.06
2023-03-06T22:14:01.543Z,2.10
2023-03-06T22:16:32.034Z,2.16
2023-03-06T22:19:01.857Z,2.21
2023-03-06T22:21:31.822Z,2.27
2023-03-06T22:24:00.690Z,2.32
2023-03-06T22:26:31.479Z,2.39
2023-03-06T22:29:00.720Z,2.43
2023-03-06T22:31:29.848Z,2.46
2023-03-06T22:34:01.189Z,2.50
2023-03-06T22:36:31.397Z,2.53
2023-03-06T22:39:02.307Z,2.57
2023-03-06T22:41:31.553Z,2.61
2023-03-06T22:44:02.348Z,2.64
2023-03-06T22:46:32.961Z,2.66
2023-03-06T22:49:03.311Z,2.67
2023-03-06T22:51:32.614Z,2.63
2023-03-06T22:54:02.119Z,2.59
2023-03-06T22:56:31.834Z,2.54
2023-03-06T22:59:01.278Z,2.51
2023-03-06T23:01:33.987Z,2.51
2023-03-06T23:04:05.462Z,2.54
2023-03-06T23:06:37.368Z,2.61
2023-03-06T23:09:15.116Z,2.67
2023-03-06T23:12:04.424Z,2.72
2023-03-06T23:14:52.376Z,2.73
2023-03-06T23:17:42.096Z,2.73
2023-03-06T23:20:30.036Z,2.71
2023-03-06T23:23:19.034Z,2.72
2023-03-06T23:25:49.322Z,2.71
2023-03-06T23:28:20.848Z,2.69
2023-03-06T23:30:50.090Z,2.71
2023-03-06T23:33:19.410Z,2.73
2023-03-06T23:35:50.637Z,2.74
2023-03-06T23:38:21.883Z,2.69
2023-03-06T23:40:51.877Z,2.64
2023-03-06T23:43:20.923Z,2.61
2023-03-06T23:45:55.255Z,2.58
2023-03-06T23:48:25.203Z,2.56
2023-03-06T23:50:54.498Z,2.54
2023-03-06T23:53:24.779Z,2.55
2023-03-06T23:55:54.873Z,2.58
2023-03-06T23:58:26.226Z,2.59
